Gorham, Kansas
Current Conditions -  °F | °C
As of 8:53 AM on Wednesday 26 Nov 2014 (Local Time) from KRSL Reporting Station
Few Clouds Few Clouds  
Wind Chill: -2°   Ceiling: Unl
Heat Index:   Visibility: 10mi
Dew Point: -4°   Wind: 25mph
Humidity: 55%   Direction: 330°NNW
Pressure: 30.12"   Gusts: 29mph
Location:  38.88°N, 99.02°W
Report Text: KRSL 261453Z AUTO 33022G25KT 10SM FEW039 04/M04 A3012 RMK AO2 PK WND 32028/1451 SLP208 T00391044 51024
Loading
Personal Weather Stations






























Interactive Weather Map New forecast layout! Learn more

10-Day Weather Forecast

Advertisements
Track Severe Weather on mobile